KSPF/SPF METAR and TAF weather

Enter ICAO airport designator
Station Type Date Time Source
KSPF METAR 2019/10/22 16:15 UTC NOAA

KSPF 221615Z AUTO 27012KT 10SM CLR 05/M03 A2997 RMK AO2


Station Type Date Time Source
KSPF Decoded METAR 2019/10/22 16:15 UTC NOAA

Spearfish / Clyde Ice, SD, United States (KSPF) 44-29N 103-47W
Oct 22, 2019 - 12:15 PM EDT / 2019.10.22 1615 UTC
Wind: from the W (270 degrees) at 14 MPH (12 KT):0
Visibility: 10 mile(s):0
Sky conditions: clear
Temperature: 41 F (5 C)
Dew Point: 26 F (-3 C)
Relative Humidity: 56%
Pressure (altimeter): 29.97 in. Hg (1014 hPa)
ob: KSPF 221615Z AUTO 27012KT 10SM CLR 05/M03 A2997 RMK AO2
cycle: 16

Station Type Date Time Source
KSPF TAF UTC NOAA

Error!

Example: see airport list